createdAt,value
2019-03-11T00:00:07.365Z,999.58
2019-03-11T00:01:07.310Z,999.66
2019-03-11T00:02:07.277Z,999.66
2019-03-11T00:03:07.197Z,999.62
2019-03-11T00:04:07.890Z,999.65
2019-03-11T00:05:07.088Z,999.59
2019-03-11T00:06:07.019Z,999.53
2019-03-11T00:07:06.982Z,999.43
2019-03-11T00:08:06.908Z,999.43
2019-03-11T00:09:06.854Z,999.57
2019-03-11T00:10:06.785Z,999.53
2019-03-11T00:11:06.732Z,999.45
2019-03-11T00:12:06.698Z,999.48
2019-03-11T00:13:06.618Z,999.48
2019-03-11T00:14:06.558Z,999.48
2019-03-11T00:15:06.502Z,999.53
2019-03-11T00:16:06.440Z,999.48
2019-03-11T00:17:06.409Z,999.50
2019-03-11T00:18:06.334Z,999.48
2019-03-11T00:19:06.272Z,999.44
2019-03-11T00:20:06.208Z,999.43
2019-03-11T00:21:06.163Z,999.40
2019-03-11T00:22:06.119Z,999.37
2019-03-11T00:23:06.058Z,999.27
2019-03-11T00:24:05.986Z,999.26
2019-03-11T00:25:05.925Z,999.20
2019-03-11T00:26:05.868Z,999.25
2019-03-11T00:27:05.833Z,999.27
2019-03-11T00:28:05.752Z,999.36
2019-03-11T00:29:05.709Z,999.44
2019-03-11T00:30:05.642Z,999.43
2019-03-11T00:31:05.577Z,999.43
2019-03-11T00:32:05.545Z,999.44
2019-03-11T00:33:05.469Z,999.46
2019-03-11T00:34:05.402Z,999.35
2019-03-11T00:35:05.401Z,999.45
2019-03-11T00:36:05.293Z,999.51
2019-03-11T00:37:05.257Z,999.50
2019-03-11T00:38:05.181Z,999.59
2019-03-11T00:39:05.127Z,999.51
2019-03-11T00:40:05.059Z,999.51
2019-03-11T00:41:04.998Z,999.38
2019-03-11T00:42:04.989Z,999.48
2019-03-11T00:43:04.898Z,999.48
2019-03-11T00:44:04.826Z,999.39
2019-03-11T00:45:04.776Z,999.38
2019-03-11T00:46:04.717Z,999.36
2019-03-11T00:47:04.680Z,999.36
2019-03-11T00:48:04.604Z,999.34
2019-03-11T00:49:04.542Z,999.34
2019-03-11T00:50:04.489Z,999.40
2019-03-11T00:51:04.430Z,999.40
2019-03-11T00:52:04.394Z,999.41
2019-03-11T00:53:04.315Z,999.41
2019-03-11T00:54:04.260Z,999.46
2019-03-11T00:55:04.200Z,999.50
2019-03-11T00:56:04.136Z,999.54
2019-03-11T00:57:04.113Z,999.47
2019-03-11T00:58:04.058Z,999.39
2019-03-11T00:59:03.961Z,999.42
2019-03-11T01:00:03.913Z,999.35
2019-03-11T01:01:03.853Z,999.29
2019-03-11T01:02:03.801Z,999.29
2019-03-11T01:03:03.772Z,999.32
2019-03-11T01:04:03.679Z,999.35
2019-03-11T01:05:03.618Z,999.36
2019-03-11T01:06:03.569Z,999.34
2019-03-11T01:07:03.504Z,999.30
2019-03-11T01:08:03.477Z,999.28
2019-03-11T01:09:03.399Z,999.26
2019-03-11T01:10:03.345Z,999.31
2019-03-11T01:11:03.286Z,999.27
2019-03-11T01:12:03.215Z,999.18
2019-03-11T01:13:03.178Z,999.24
2019-03-11T01:14:03.103Z,999.25
2019-03-11T01:15:03.046Z,999.23
2019-03-11T01:16:02.986Z,999.21
2019-03-11T01:17:02.939Z,999.24
2019-03-11T01:18:02.954Z,999.26
2019-03-11T01:19:02.814Z,999.39
2019-03-11T01:20:02.867Z,999.35
2019-03-11T01:21:02.703Z,999.38
2019-03-11T01:22:02.643Z,999.33
2019-03-11T01:23:02.627Z,999.31
2019-03-11T01:24:02.536Z,999.36
2019-03-11T01:25:04.846Z,999.39
2019-03-11T01:26:02.420Z,999.39
2019-03-11T01:27:02.352Z,999.30
2019-03-11T01:28:02.338Z,999.20
2019-03-11T01:29:02.242Z,999.20
2019-03-11T01:30:02.186Z,999.26
2019-03-11T01:31:02.129Z,999.20
2019-03-11T01:32:02.080Z,999.15
2019-03-11T01:33:02.039Z,999.12
2019-03-11T01:34:01.958Z,999.16
2019-03-11T01:35:01.898Z,999.19
2019-03-11T01:36:01.841Z,999.21
2019-03-11T01:37:01.782Z,999.21
2019-03-11T01:38:01.754Z,999.19
2019-03-11T01:39:01.663Z,999.22
2019-03-11T01:40:01.622Z,999.25
2019-03-11T01:41:01.555Z,999.24
2019-03-11T01:42:01.494Z,999.19
2019-03-11T01:43:01.465Z,999.15
2019-03-11T01:44:01.393Z,999.14
2019-03-11T01:45:01.326Z,999.20
2019-03-11T01:46:01.275Z,999.10
2019-03-11T01:47:01.222Z,999.21
2019-03-11T01:48:01.176Z,999.21
2019-03-11T01:49:01.146Z,999.21
2019-03-11T01:50:01.065Z,999.16
2019-03-11T01:51:00.992Z,999.17
2019-03-11T01:52:00.978Z,999.10
2019-03-11T01:53:00.899Z,999.14
2019-03-11T01:54:00.820Z,999.17
2019-03-11T01:55:00.764Z,999.12
2019-03-11T01:56:01.939Z,999.05
2019-03-11T01:57:00.655Z,998.98
2019-03-11T01:58:00.580Z,998.91
2019-03-11T01:59:00.564Z,998.98
2019-03-11T02:00:00.473Z,998.88
2019-03-11T02:01:00.421Z,998.91
2019-03-11T02:02:00.351Z,998.86
2019-03-11T02:03:00.305Z,998.91
2019-03-11T02:04:00.301Z,998.95
2019-03-11T02:05:00.341Z,998.98
2019-03-11T02:06:00.143Z,999.00
2019-03-11T02:07:00.083Z,999.04
2019-03-11T02:08:00.012Z,999.03
2019-03-11T02:08:59.980Z,999.05
2019-03-11T02:09:59.927Z,999.04
2019-03-11T02:10:59.876Z,999.03
2019-03-11T02:11:59.780Z,999.06
2019-03-11T02:12:59.715Z,999.00
2019-03-11T02:13:59.713Z,998.93
2019-03-11T02:14:59.605Z,998.78
2019-03-11T02:15:59.574Z,998.91
2019-03-11T02:16:59.494Z,998.87
2019-03-11T02:17:59.524Z,998.86
2019-03-11T02:18:59.413Z,998.78
2019-03-11T02:19:59.345Z,998.79
2019-03-11T02:20:59.274Z,998.78
2019-03-11T02:21:59.208Z,998.76
2019-03-11T02:22:59.148Z,998.75
2019-03-11T02:23:59.118Z,998.65
2019-03-11T02:24:59.036Z,998.72
2019-03-11T02:25:58.963Z,998.80
2019-03-11T02:26:58.926Z,998.81
2019-03-11T02:27:58.865Z,998.74
2019-03-11T02:28:58.844Z,998.73
2019-03-11T02:29:58.742Z,998.70
2019-03-11T02:30:58.683Z,998.74
2019-03-11T02:31:58.645Z,998.76
2019-03-11T02:32:58.567Z,998.76
2019-03-11T02:33:58.525Z,998.74
2019-03-11T02:34:58.470Z,998.78
2019-03-11T02:35:58.391Z,998.81
2019-03-11T02:36:58.364Z,998.70
2019-03-11T02:37:58.279Z,998.71
2019-03-11T02:38:58.258Z,998.78
2019-03-11T02:39:58.165Z,998.76
2019-03-11T02:40:58.121Z,998.74
2019-03-11T02:41:58.066Z,998.77
2019-03-11T02:42:58.020Z,998.76
2019-03-11T02:43:57.996Z,998.76
2019-03-11T02:44:57.905Z,998.77
2019-03-11T02:45:57.837Z,998.76
2019-03-11T02:46:57.768Z,998.82
2019-03-11T02:47:57.701Z,998.83
2019-03-11T02:48:57.726Z,998.82
2019-03-11T02:49:57.597Z,998.92
2019-03-11T02:50:57.550Z,998.76
2019-03-11T02:51:57.471Z,998.74
2019-03-11T02:52:57.430Z,998.79
2019-03-11T02:53:57.387Z,998.72
2019-03-11T02:54:57.344Z,998.66
2019-03-11T02:55:57.243Z,998.66
2019-03-11T02:56:57.375Z,998.69
2019-03-11T02:57:57.143Z,998.66
2019-03-11T02:58:57.128Z,998.74
2019-03-11T02:59:57.057Z,998.66
2019-03-11T03:00:57.051Z,998.66
2019-03-11T03:01:56.915Z,998.67
2019-03-11T03:02:56.836Z,998.70
2019-03-11T03:03:56.808Z,998.74
2019-03-11T03:04:56.774Z,998.76
2019-03-11T03:05:56.663Z,998.77
2019-03-11T03:06:56.623Z,998.81
2019-03-11T03:07:56.551Z,998.79
2019-03-11T03:08:56.496Z,998.78
2019-03-11T03:09:56.462Z,998.80
2019-03-11T03:10:56.385Z,998.81
2019-03-11T03:11:56.371Z,998.80
2019-03-11T03:12:56.284Z,998.76
2019-03-11T03:13:56.246Z,998.80
2019-03-11T03:14:56.188Z,998.82
2019-03-11T03:15:56.105Z,998.76
2019-03-11T03:16:56.047Z,998.78
2019-03-11T03:17:55.967Z,998.83
2019-03-11T03:18:55.921Z,998.87
2019-03-11T03:19:55.888Z,998.83
2019-03-11T03:20:55.798Z,998.76
2019-03-11T03:21:55.739Z,998.82
2019-03-11T03:22:55.682Z,998.79
2019-03-11T03:23:55.640Z,998.75
2019-03-11T03:24:55.624Z,998.82
2019-03-11T03:25:55.554Z,998.80
2019-03-11T03:26:55.474Z,998.79
2019-03-11T03:27:55.544Z,998.80
2019-03-11T03:28:55.346Z,998.76
2019-03-11T03:29:55.285Z,998.70
2019-03-11T03:30:55.266Z,998.77
2019-03-11T03:31:55.173Z,998.71
2019-03-11T03:32:55.102Z,998.73
2019-03-11T03:33:55.057Z,998.77
2019-03-11T03:34:55.106Z,998.77
2019-03-11T03:35:54.963Z,998.75
2019-03-11T03:36:54.922Z,998.73
2019-03-11T03:37:54.833Z,998.79
2019-03-11T03:38:54.775Z,998.82
2019-03-11T03:39:54.712Z,998.81
2019-03-11T03:40:54.807Z,998.78
2019-03-11T03:41:54.593Z,998.81
2019-03-11T03:44:26.110Z,998.71
2019-03-11T03:45:26.072Z,998.79
2019-03-11T03:46:25.995Z,998.78
2019-03-11T03:47:25.933Z,998.80
2019-03-11T03:48:25.914Z,998.84
2019-03-11T03:49:25.822Z,998.84
2019-03-11T03:50:25.767Z,998.83
2019-03-11T03:51:25.736Z,998.85
2019-03-11T03:52:25.655Z,998.81
2019-03-11T03:53:25.585Z,998.76
2019-03-11T03:54:25.529Z,998.79
2019-03-11T03:55:25.475Z,998.80
2019-03-11T03:56:25.437Z,998.80
2019-03-11T03:57:25.354Z,998.82
2019-03-11T03:58:25.296Z,998.73
2019-03-11T03:59:25.244Z,998.72
2019-03-11T04:00:25.185Z,998.77
2019-03-11T04:01:25.150Z,998.68
2019-03-11T04:02:25.070Z,998.74
2019-03-11T04:03:25.011Z,998.76
2019-03-11T04:04:24.951Z,998.66
2019-03-11T04:05:24.945Z,998.63
2019-03-11T04:06:24.863Z,998.66
2019-03-11T04:07:24.790Z,998.71
2019-03-11T04:08:24.726Z,998.70
2019-03-11T04:09:24.688Z,998.66
2019-03-11T04:10:24.613Z,998.68
2019-03-11T04:11:24.571Z,998.72
2019-03-11T04:12:24.493Z,998.66
2019-03-11T04:13:24.444Z,998.69
2019-03-11T04:14:24.378Z,998.67
2019-03-11T04:15:24.320Z,998.59
2019-03-11T04:16:24.291Z,998.62
2019-03-11T04:17:24.310Z,998.59
2019-03-11T04:18:24.149Z,998.61
2019-03-11T04:19:24.089Z,998.52
2019-03-11T04:20:24.030Z,998.49
2019-03-11T04:21:24.003Z,998.52
2019-03-11T04:22:23.914Z,998.53
2019-03-11T04:23:23.859Z,998.58
2019-03-11T04:24:23.800Z,998.64
2019-03-11T04:25:23.743Z,998.63
2019-03-11T04:26:23.708Z,998.66
2019-03-11T04:27:23.655Z,998.64
2019-03-11T04:28:23.568Z,998.69
2019-03-11T04:29:23.513Z,998.69
2019-03-11T04:30:23.463Z,998.64
2019-03-11T04:31:23.422Z,998.67
2019-03-11T04:32:23.345Z,998.67
2019-03-11T04:33:23.284Z,998.63
2019-03-11T04:34:23.233Z,998.64
2019-03-11T04:35:23.173Z,998.69
2019-03-11T04:36:23.172Z,998.71
2019-03-11T04:37:23.054Z,998.67
2019-03-11T04:38:22.995Z,998.65
2019-03-11T04:39:22.936Z,998.66
2019-03-11T04:40:22.880Z,998.68
2019-03-11T04:41:22.844Z,998.67
2019-03-11T04:42:22.762Z,998.69
2019-03-11T04:43:22.707Z,998.73
2019-03-11T04:44:22.647Z,998.77
2019-03-11T04:45:22.592Z,998.80
2019-03-11T04:46:22.559Z,998.81
2019-03-11T04:47:22.477Z,998.78
2019-03-11T04:48:22.417Z,998.79
2019-03-11T04:49:22.357Z,998.79
2019-03-11T04:50:22.314Z,998.86
2019-03-11T04:51:22.267Z,998.78
2019-03-11T04:52:22.180Z,998.83
2019-03-11T04:53:22.129Z,998.90
2019-03-11T04:54:22.068Z,998.86
2019-03-11T04:55:22.016Z,998.85
2019-03-11T04:56:21.978Z,998.89
2019-03-11T04:57:23.525Z,998.95
2019-03-11T04:58:21.840Z,998.93
2019-03-11T04:59:21.784Z,998.93
2019-03-11T05:00:21.722Z,998.96
2019-03-11T05:01:21.718Z,998.93
2019-03-11T05:02:21.637Z,998.90
2019-03-11T05:03:21.551Z,998.93
2019-03-11T05:04:21.495Z,998.89
2019-03-11T05:05:21.436Z,998.89
2019-03-11T05:06:21.376Z,998.90
2019-03-11T05:07:21.340Z,998.89
2019-03-11T05:08:21.261Z,998.92
2019-03-11T05:09:21.202Z,998.95
2019-03-11T05:10:21.149Z,998.98
2019-03-11T05:11:21.086Z,998.93
2019-03-11T05:12:21.054Z,998.85
2019-03-11T05:13:20.972Z,998.86
2019-03-11T05:14:20.913Z,998.82
2019-03-11T05:15:20.864Z,998.81
2019-03-11T05:16:20.798Z,998.87
2019-03-11T05:17:20.762Z,998.85
2019-03-11T05:18:20.683Z,998.88
2019-03-11T05:19:20.624Z,998.91
2019-03-11T05:20:20.572Z,998.97
2019-03-11T05:21:20.560Z,998.97
2019-03-11T05:22:20.475Z,998.94
2019-03-11T05:23:20.395Z,998.90
2019-03-11T05:24:20.335Z,998.89
2019-03-11T05:25:20.275Z,998.94
2019-03-11T05:26:20.220Z,998.99
2019-03-11T05:27:20.186Z,998.91
2019-03-11T05:28:20.099Z,998.92
2019-03-11T05:29:20.046Z,998.95
2019-03-11T05:30:19.990Z,998.99
2019-03-11T05:31:19.940Z,998.96
2019-03-11T05:32:19.897Z,998.94
2019-03-11T05:33:20.580Z,999.02
2019-03-11T05:34:19.757Z,999.01
2019-03-11T05:35:19.701Z,999.03
2019-03-11T05:36:19.642Z,999.01
2019-03-11T05:37:19.607Z,999.04
2019-03-11T05:38:19.527Z,999.12
2019-03-11T05:39:19.464Z,999.10
2019-03-11T05:40:19.412Z,999.14
2019-03-11T05:41:19.354Z,999.19
2019-03-11T05:42:19.317Z,999.20
2019-03-11T05:43:19.238Z,999.12
2019-03-11T05:44:19.179Z,999.19
2019-03-11T05:45:19.121Z,999.10
2019-03-11T05:46:19.068Z,999.10
2019-03-11T05:47:19.041Z,999.11
2019-03-11T05:48:18.950Z,999.11
2019-03-11T05:49:18.889Z,999.13
2019-03-11T05:50:18.835Z,999.07
2019-03-11T05:51:18.771Z,999.07
2019-03-11T05:52:18.722Z,999.07
2019-03-11T05:53:18.711Z,999.15
2019-03-11T05:54:18.601Z,999.12
2019-03-11T05:55:18.543Z,999.16
2019-03-11T05:56:18.486Z,999.12
2019-03-11T05:57:18.438Z,999.08
2019-03-11T05:58:18.402Z,999.11
2019-03-11T05:59:18.312Z,999.13
2019-03-11T06:00:18.255Z,999.13
2019-03-11T06:01:18.200Z,999.10
2019-03-11T06:02:18.138Z,999.14
2019-03-11T06:03:18.103Z,999.09
2019-03-11T06:04:18.023Z,999.07
2019-03-11T06:05:17.965Z,999.10
2019-03-11T06:06:17.909Z,999.11
2019-03-11T06:07:17.849Z,999.13
2019-03-11T06:08:17.834Z,999.11
2019-03-11T06:09:17.736Z,999.07
2019-03-11T06:10:17.688Z,999.11
2019-03-11T06:11:17.620Z,999.14
2019-03-11T06:12:17.560Z,999.16
2019-03-11T06:13:17.528Z,999.19
2019-03-11T06:14:17.446Z,999.15
2019-03-11T06:15:17.390Z,999.19
2019-03-11T06:16:17.330Z,999.21
2019-03-11T06:17:17.275Z,999.25
2019-03-11T06:18:17.279Z,999.21
2019-03-11T06:19:17.160Z,999.05
2019-03-11T06:20:17.101Z,999.04
2019-03-11T06:21:17.045Z,999.05
2019-03-11T06:22:16.987Z,999.13
2019-03-11T06:23:16.956Z,999.10
2019-03-11T06:24:16.873Z,999.08
2019-03-11T06:25:16.816Z,999.09
2019-03-11T06:26:16.756Z,999.10
2019-03-11T06:27:16.704Z,999.15
2019-03-11T06:28:16.665Z,999.19
2019-03-11T06:29:16.582Z,999.14
2019-03-11T06:30:16.527Z,999.14
2019-03-11T06:31:16.467Z,999.23
2019-03-11T06:32:16.412Z,999.21
2019-03-11T06:33:16.386Z,999.24
2019-03-11T06:34:16.297Z,999.17
2019-03-11T06:35:16.239Z,999.19
2019-03-11T06:36:16.178Z,999.20
2019-03-11T06:37:16.128Z,999.19
2019-03-11T06:38:16.091Z,999.21
2019-03-11T06:39:16.008Z,999.28
2019-03-11T06:40:15.956Z,999.32
2019-03-11T06:41:15.916Z,999.19
2019-03-11T06:42:15.830Z,999.22
2019-03-11T06:43:15.816Z,999.25
2019-03-11T06:44:15.719Z,999.34
2019-03-11T06:45:15.659Z,999.40
2019-03-11T06:46:15.601Z,999.43
2019-03-11T06:47:15.545Z,999.48
2019-03-11T06:48:15.494Z,999.51
2019-03-11T06:49:15.458Z,999.48
2019-03-11T06:50:15.371Z,999.61
2019-03-11T06:51:15.311Z,999.62
2019-03-11T06:52:15.261Z,999.69
2019-03-11T06:53:15.197Z,999.64
2019-03-11T06:54:15.162Z,999.67
2019-03-11T06:55:15.084Z,999.66
2019-03-11T06:56:15.027Z,999.67
2019-03-11T06:57:14.967Z,999.69
2019-03-11T06:58:14.908Z,999.73
2019-03-11T06:59:14.873Z,999.73
2019-03-11T07:00:14.790Z,999.70
2019-03-11T07:01:14.738Z,999.73
2019-03-11T07:02:14.674Z,999.70
2019-03-11T07:03:14.623Z,999.70
2019-03-11T07:04:14.587Z,999.69
2019-03-11T07:05:19.803Z,999.76
2019-03-11T07:06:14.445Z,999.81
2019-03-11T07:07:14.389Z,999.80
2019-03-11T07:08:14.325Z,999.80
2019-03-11T07:09:14.329Z,999.77
2019-03-11T07:10:14.211Z,999.80
2019-03-11T07:11:14.157Z,999.83
2019-03-11T07:12:14.098Z,999.81
2019-03-11T07:13:14.041Z,999.70
2019-03-11T07:14:14.005Z,999.75
2019-03-11T07:15:13.925Z,999.76
2019-03-11T07:16:13.866Z,999.73
2019-03-11T07:17:13.837Z,999.68
2019-03-11T07:18:13.753Z,999.72
2019-03-11T07:19:13.716Z,999.71
2019-03-11T07:20:13.640Z,999.69
2019-03-11T07:21:13.577Z,999.73
2019-03-11T07:22:14.559Z,999.64
2019-03-11T07:23:13.466Z,999.69
2019-03-11T07:24:13.435Z,999.79
2019-03-11T07:25:13.355Z,999.84
2019-03-11T07:26:13.296Z,999.73
2019-03-11T07:27:13.237Z,999.73
2019-03-11T07:28:13.161Z,999.74
2019-03-11T07:29:13.143Z,999.82
2019-03-11T07:30:13.063Z,999.73
2019-03-11T07:31:13.008Z,999.71
2019-03-11T07:32:12.945Z,999.79
2019-03-11T07:33:12.893Z,999.95
2019-03-11T07:34:12.857Z,999.92
2019-03-11T07:35:12.778Z,999.91
2019-03-11T07:36:12.727Z,999.88
2019-03-11T07:37:12.700Z,999.87
2019-03-11T07:38:12.605Z,999.82
2019-03-11T07:39:12.606Z,999.69
2019-03-11T07:40:12.491Z,999.73
2019-03-11T07:41:12.433Z,999.75
2019-03-11T07:42:12.379Z,999.81
2019-03-11T07:43:12.314Z,999.71
2019-03-11T07:44:12.259Z,999.73
2019-03-11T07:45:12.231Z,999.80
2019-03-11T07:46:12.146Z,999.73
2019-03-11T07:47:12.098Z,999.69
2019-03-11T07:48:12.029Z,999.79
2019-03-11T07:49:11.978Z,999.75
2019-03-11T07:50:11.986Z,999.79
2019-03-11T07:51:11.878Z,999.78
2019-03-11T07:52:11.800Z,999.85
2019-03-11T07:53:11.744Z,999.84
2019-03-11T07:54:11.686Z,999.95
2019-03-11T07:55:11.654Z,999.99
2019-03-11T07:56:11.571Z,999.97
2019-03-11T07:57:11.515Z,999.97
2019-03-11T07:58:11.456Z,1000.04
2019-03-11T07:59:11.400Z,1000.03
2019-03-11T08:00:11.380Z,1000.14
2019-03-11T08:01:11.286Z,1000.15
2019-03-11T08:02:11.227Z,1000.19
2019-03-11T08:03:11.174Z,1000.18
2019-03-11T08:04:11.116Z,1000.29
2019-03-11T08:05:11.076Z,1000.23
2019-03-11T08:06:18.685Z,1000.17
2019-03-11T08:07:10.941Z,1000.20
2019-03-11T08:08:10.934Z,1000.14
2019-03-11T08:09:10.831Z,1000.18
2019-03-11T08:10:10.788Z,1000.19
2019-03-11T08:11:10.714Z,1000.16
2019-03-11T08:12:10.653Z,1000.12
2019-03-11T08:13:10.597Z,1000.14
2019-03-11T08:14:10.537Z,1000.06
2019-03-11T08:15:10.503Z,1000.02
2019-03-11T08:16:10.422Z,999.93
2019-03-11T08:17:10.369Z,999.96
2019-03-11T08:18:10.944Z,999.95
2019-03-11T08:19:10.252Z,999.95
2019-03-11T08:20:10.219Z,999.95
2019-03-11T08:21:10.143Z,1000.14
2019-03-11T08:22:10.078Z,1000.16
2019-03-11T08:23:10.023Z,1000.14
2019-03-11T08:24:09.965Z,1000.18
2019-03-11T08:25:09.939Z,1000.21
2019-03-11T08:26:09.848Z,1000.24
2019-03-11T08:27:09.794Z,1000.22
2019-03-11T08:28:09.742Z,1000.34
2019-03-11T08:29:09.678Z,1000.42
2019-03-11T08:30:09.643Z,1000.39
2019-03-11T08:31:09.563Z,1000.40
2019-03-11T08:32:09.509Z,1000.41
2019-03-11T08:33:09.445Z,1000.49
2019-03-11T08:34:09.393Z,1000.45
2019-03-11T08:35:09.359Z,1000.48
2019-03-11T08:36:09.267Z,1000.44
2019-03-11T08:37:09.220Z,1000.40
2019-03-11T08:38:09.161Z,1000.38
2019-03-11T08:39:09.100Z,1000.44
2019-03-11T08:40:09.069Z,1000.51
2019-03-11T08:41:08.986Z,1000.48
2019-03-11T08:42:08.933Z,1000.49
2019-03-11T08:43:08.873Z,1000.47
2019-03-11T08:44:08.813Z,1000.52
2019-03-11T08:45:08.781Z,1000.47
2019-03-11T08:46:08.697Z,1000.42
2019-03-11T08:47:08.642Z,1000.47
2019-03-11T08:48:08.581Z,1000.52
2019-03-11T08:49:08.532Z,1000.50
2019-03-11T08:50:08.492Z,1000.53
2019-03-11T08:51:08.413Z,1000.52
2019-03-11T08:52:08.354Z,1000.50
2019-03-11T08:53:08.297Z,1000.42
2019-03-11T08:54:08.242Z,1000.45
2019-03-11T08:55:08.226Z,1000.40
2019-03-11T08:56:08.124Z,1000.42
2019-03-11T08:57:08.060Z,1000.43
2019-03-11T08:58:08.008Z,1000.38
2019-03-11T08:59:07.954Z,1000.44
2019-03-11T09:00:07.896Z,1000.49
2019-03-11T09:01:07.859Z,1000.46
2019-03-11T09:02:07.779Z,1000.46
2019-03-11T09:03:07.720Z,1000.47
2019-03-11T09:04:07.665Z,1000.53
2019-03-11T09:05:07.610Z,1000.53
2019-03-11T09:06:07.570Z,1000.46
2019-03-11T09:07:07.494Z,1000.54
2019-03-11T09:08:07.437Z,1000.54
2019-03-11T09:09:07.375Z,1000.56
2019-03-11T09:10:07.323Z,1000.61
2019-03-11T09:11:07.293Z,1000.53
2019-03-11T09:12:07.202Z,1000.59
2019-03-11T09:13:07.146Z,1000.57
2019-03-11T09:14:07.088Z,1000.53
2019-03-11T09:15:07.031Z,1000.58
2019-03-11T09:16:06.999Z,1000.56
2019-03-11T09:17:06.916Z,1000.58
2019-03-11T09:18:06.861Z,1000.64
2019-03-11T09:19:06.801Z,1000.70
2019-03-11T09:20:06.742Z,1000.77
2019-03-11T09:21:06.715Z,1000.76
2019-03-11T09:22:06.627Z,1000.74
2019-03-11T09:23:06.563Z,1000.74
2019-03-11T09:24:06.513Z,1000.73
2019-03-11T09:25:06.458Z,1000.84
2019-03-11T09:26:06.418Z,1000.83
2019-03-11T09:27:06.340Z,1000.88
2019-03-11T09:28:06.286Z,1000.91
2019-03-11T09:29:06.220Z,1000.95
2019-03-11T09:30:06.161Z,1000.85
2019-03-11T09:31:06.130Z,1000.95
2019-03-11T09:32:06.042Z,1001.00
2019-03-11T09:33:08.335Z,1001.02
2019-03-11T09:34:05.935Z,1000.95
2019-03-11T09:35:05.875Z,1001.01
2019-03-11T09:36:05.843Z,1000.98
2019-03-11T09:37:05.758Z,1000.96
2019-03-11T09:38:05.745Z,1000.92
2019-03-11T09:39:05.646Z,1001.04
2019-03-11T09:40:05.586Z,1001.00
2019-03-11T09:41:05.562Z,1001.01
2019-03-11T09:42:05.471Z,1001.03
2019-03-11T09:43:05.412Z,1001.02
2019-03-11T09:44:13.259Z,1000.93
2019-03-11T09:45:05.298Z,1001.02
2019-03-11T09:46:05.265Z,1001.06
2019-03-11T09:47:05.184Z,1001.14
2019-03-11T09:48:12.797Z,1000.97
2019-03-11T09:49:05.065Z,1000.94
2019-03-11T09:50:05.012Z,1000.92
2019-03-11T09:51:04.982Z,1000.86
2019-03-11T09:52:04.894Z,1000.79
2019-03-11T09:53:04.859Z,1000.82
2019-03-11T09:54:04.775Z,1000.96
2019-03-11T09:55:04.722Z,1001.11
2019-03-11T09:56:04.684Z,1001.28
2019-03-11T09:57:04.611Z,1001.33
2019-03-11T09:58:04.663Z,1001.32
2019-03-11T09:59:04.486Z,1001.32
2019-03-11T10:00:04.431Z,1001.43
2019-03-11T10:01:04.415Z,1001.47
2019-03-11T10:02:04.317Z,1001.49
2019-03-11T10:03:04.260Z,1001.62
2019-03-11T10:04:04.216Z,1001.59
2019-03-11T10:05:04.141Z,1001.66
2019-03-11T10:06:04.084Z,1001.58
2019-03-11T10:07:04.059Z,1001.51
2019-03-11T10:08:03.971Z,1001.41
2019-03-11T10:09:03.912Z,1001.30
2019-03-11T10:10:03.875Z,1001.30
2019-03-11T10:11:03.797Z,1001.34
2019-03-11T10:12:03.762Z,1001.25
2019-03-11T10:13:03.679Z,1001.02
2019-03-11T10:14:03.623Z,1000.85
2019-03-11T10:15:03.572Z,1000.95
2019-03-11T10:16:03.514Z,1001.07
2019-03-11T10:17:03.480Z,1001.15
2019-03-11T10:18:03.396Z,1001.24
2019-03-11T10:19:03.335Z,1001.29
2019-03-11T10:20:03.279Z,1001.25
2019-03-11T10:21:03.219Z,1001.26
2019-03-11T10:22:03.188Z,1001.20
2019-03-11T10:23:03.104Z,1001.30
2019-03-11T10:24:03.044Z,1001.40
2019-03-11T10:25:02.990Z,1001.50
2019-03-11T10:26:02.932Z,1001.55
2019-03-11T10:27:02.891Z,1001.49
2019-03-11T10:28:02.815Z,1001.39
2019-03-11T10:29:02.759Z,1001.36
2019-03-11T10:30:02.704Z,1001.46
2019-03-11T10:31:02.642Z,1001.49
2019-03-11T10:32:02.606Z,1001.42
2019-03-11T10:33:02.542Z,1001.39
2019-03-11T10:34:02.468Z,1001.32
2019-03-11T10:35:02.412Z,1001.38
2019-03-11T10:36:02.354Z,1001.48
2019-03-11T10:37:02.320Z,1001.60
2019-03-11T10:38:02.244Z,1001.62
2019-03-11T10:39:02.183Z,1001.63
2019-03-11T10:40:02.128Z,1001.60
2019-03-11T10:41:02.065Z,1001.65
2019-03-11T10:42:02.030Z,1001.69
2019-03-11T10:43:01.950Z,1001.67
2019-03-11T10:44:01.890Z,1001.72
2019-03-11T10:45:01.830Z,1001.71
2019-03-11T10:46:01.774Z,1001.80
2019-03-11T10:47:01.743Z,1001.82
2019-03-11T10:48:01.661Z,1001.79
2019-03-11T10:49:01.632Z,1001.79
2019-03-11T10:50:01.549Z,1001.87
2019-03-11T10:51:01.613Z,1001.82
2019-03-11T10:52:01.426Z,1001.88
2019-03-11T10:53:01.390Z,1001.84
2019-03-11T10:54:01.312Z,1001.78
2019-03-11T10:55:01.254Z,1001.77
2019-03-11T10:56:01.197Z,1001.80
2019-03-11T10:57:01.138Z,1001.82
2019-03-11T10:58:01.107Z,1001.96
2019-03-11T10:59:01.023Z,1001.86
2019-03-11T11:00:00.963Z,1001.95
2019-03-11T11:01:00.908Z,1001.89
2019-03-11T11:02:00.849Z,1001.85
2019-03-11T11:03:00.820Z,1001.70
2019-03-11T11:04:00.734Z,1001.60
2019-03-11T11:05:00.678Z,1001.69
2019-03-11T11:06:00.622Z,1001.83
2019-03-11T11:07:00.561Z,1001.91
2019-03-11T11:08:00.533Z,1001.88
2019-03-11T11:09:00.448Z,1001.82
2019-03-11T11:10:00.450Z,1001.84
2019-03-11T11:11:00.340Z,1001.75
2019-03-11T11:12:00.279Z,1001.74
2019-03-11T11:13:00.250Z,1001.72
2019-03-11T11:14:00.164Z,1001.56
2019-03-11T11:15:00.166Z,1001.69
2019-03-11T11:16:00.049Z,1001.77
2019-03-11T11:16:59.993Z,1001.82
2019-03-11T11:17:59.961Z,1001.64
2019-03-11T11:18:59.885Z,1001.52
2019-03-11T11:20:03.497Z,1001.75
2019-03-11T11:20:59.769Z,1001.76
2019-03-11T11:21:59.713Z,1001.83
2019-03-11T11:22:59.676Z,1001.72
2019-03-11T11:23:59.598Z,1001.73
2019-03-11T11:24:59.542Z,1001.68
2019-03-11T11:25:59.482Z,1001.59
2019-03-11T11:26:59.434Z,1001.66
2019-03-11T11:27:59.396Z,1001.69
2019-03-11T11:28:59.316Z,1001.61
2019-03-11T11:29:59.260Z,1001.60
2019-03-11T11:30:59.201Z,1001.48
2019-03-11T11:31:59.147Z,1001.58
2019-03-11T11:32:59.127Z,1001.57
2019-03-11T11:33:59.035Z,1001.56
2019-03-11T11:34:58.978Z,1001.66
2019-03-11T11:35:58.934Z,1001.67
2019-03-11T11:36:58.898Z,1001.70
2019-03-11T11:37:58.834Z,1001.76
2019-03-11T11:38:58.754Z,1001.72
2019-03-11T11:39:58.695Z,1001.54
2019-03-11T11:40:58.639Z,1001.66
2019-03-11T11:41:58.585Z,1001.67
2019-03-11T11:42:58.557Z,1001.65
2019-03-11T11:43:58.484Z,1001.72
2019-03-11T11:44:58.419Z,1001.73
2019-03-11T11:45:58.358Z,1001.78
2019-03-11T11:46:58.299Z,1001.74
2019-03-11T11:47:58.285Z,1001.73
2019-03-11T11:48:58.186Z,1001.69
2019-03-11T11:49:58.131Z,1001.66
2019-03-11T11:50:58.074Z,1001.73
2019-03-11T11:51:58.019Z,1001.82
2019-03-11T11:52:57.959Z,1001.78
2019-03-11T11:53:57.930Z,1001.83
2019-03-11T11:54:57.848Z,1001.75
2019-03-11T11:55:58.276Z,1001.80
2019-03-11T11:56:57.733Z,1001.74
2019-03-11T11:57:57.678Z,1001.68
2019-03-11T11:58:57.659Z,1001.68
2019-03-11T11:59:57.569Z,1001.63
2019-03-11T12:00:57.508Z,1001.71
2019-03-11T12:02:03.603Z,1001.86
2019-03-11T12:02:57.393Z,1001.77
2019-03-11T12:03:57.358Z,1001.87
2019-03-11T12:04:57.278Z,1001.96
2019-03-11T12:05:57.217Z,1001.92
2019-03-11T12:06:57.166Z,1001.76
2019-03-11T12:07:57.109Z,1001.87
2019-03-11T12:08:57.077Z,1001.84
2019-03-11T12:09:57.000Z,1001.84
2019-03-11T12:10:56.938Z,1001.76
2019-03-11T12:11:56.885Z,1001.76
2019-03-11T12:12:56.829Z,1001.59
2019-03-11T12:13:56.787Z,1001.67
2019-03-11T12:14:56.712Z,1001.83
2019-03-11T12:15:56.657Z,1001.90
2019-03-11T12:16:56.601Z,1001.88
2019-03-11T12:17:56.542Z,1001.93
2019-03-11T12:18:56.513Z,1002.06
2019-03-11T12:19:56.432Z,1002.15
2019-03-11T12:20:56.401Z,1002.12